createdAt,value
2022-12-15T00:02:36.202Z,17.60
2022-12-15T00:06:58.664Z,17.60
2022-12-15T00:11:21.140Z,17.17
2022-12-15T00:15:41.432Z,17.67
2022-12-15T00:20:01.704Z,16.90
2022-12-15T00:24:24.275Z,16.63
2022-12-15T00:28:44.446Z,16.57
2022-12-15T00:33:04.800Z,16.33
2022-12-15T00:37:25.127Z,17.07
2022-12-15T00:41:29.625Z,17.60
2022-12-15T00:45:46.833Z,16.47
2022-12-15T00:50:07.667Z,18.60
2022-12-15T00:54:28.460Z,16.33
2022-12-15T00:58:50.675Z,16.70
2022-12-15T01:03:11.150Z,16.50
2022-12-15T01:07:32.800Z,17.63
2022-12-15T01:11:53.155Z,15.90
2022-12-15T01:16:15.052Z,16.50
2022-12-15T01:20:19.147Z,15.23
2022-12-15T01:24:22.302Z,16.07
2022-12-15T01:28:25.990Z,17.07
2022-12-15T01:32:30.489Z,17.00
2022-12-15T01:36:33.511Z,17.27
2022-12-15T01:40:46.385Z,16.43
2022-12-15T01:44:52.873Z,16.87
2022-12-15T01:49:01.581Z,17.13
2022-12-15T01:53:05.010Z,18.07
2022-12-15T01:57:11.922Z,16.30
2022-12-15T02:01:15.016Z,17.87
2022-12-15T02:05:21.012Z,17.20
2022-12-15T02:09:26.825Z,16.07
2022-12-15T02:13:36.392Z,18.10
2022-12-15T02:17:49.951Z,17.90
2022-12-15T02:22:10.508Z,15.87
2022-12-15T02:26:49.833Z,19.07
2022-12-15T02:31:15.932Z,16.80
2022-12-15T02:35:26.386Z,17.77
2022-12-15T02:39:30.323Z,16.20
2022-12-15T02:43:38.904Z,17.10
2022-12-15T02:47:52.234Z,16.17
2022-12-15T02:52:08.714Z,17.77
2022-12-15T02:56:18.484Z,16.10
2022-12-15T03:00:22.477Z,16.80
2022-12-15T03:04:27.909Z,17.10
2022-12-15T03:08:30.960Z,16.67
2022-12-15T03:12:34.182Z,17.00
2022-12-15T03:16:37.323Z,16.03
2022-12-15T03:20:41.941Z,16.20
2022-12-15T03:24:45.042Z,17.47
2022-12-15T03:28:48.083Z,17.57
2022-12-15T03:32:51.222Z,16.70
2022-12-15T03:36:55.907Z,16.07
2022-12-15T03:40:58.962Z,16.87
2022-12-15T03:45:01.981Z,17.00
2022-12-15T03:49:05.327Z,16.67
2022-12-15T03:53:09.717Z,16.23
2022-12-15T03:57:13.300Z,17.33
2022-12-15T04:01:27.239Z,16.07
2022-12-15T04:05:33.096Z,15.90
2022-12-15T04:09:37.933Z,16.53
2022-12-15T04:13:41.121Z,16.27
2022-12-15T04:17:44.454Z,16.60
2022-12-15T04:21:47.481Z,16.67
2022-12-15T04:26:09.368Z,16.33
2022-12-15T04:30:32.251Z,16.83
2022-12-15T04:34:54.182Z,16.47
2022-12-15T04:39:15.801Z,17.20
2022-12-15T04:43:37.783Z,16.57
2022-12-15T04:47:58.352Z,17.10
2022-12-15T04:52:18.646Z,16.97
2022-12-15T04:56:39.228Z,16.63
2022-12-15T05:01:01.216Z,17.13
2022-12-15T05:05:22.226Z,16.97
2022-12-15T05:09:42.530Z,15.77
2022-12-15T05:14:02.865Z,17.00
2022-12-15T05:18:24.849Z,17.27
2022-12-15T05:23:12.957Z,16.20
2022-12-15T05:27:33.487Z,16.17
2022-12-15T05:31:52.008Z,17.57
2022-12-15T05:35:59.062Z,15.30
2022-12-15T05:40:02.006Z,17.53
2022-12-15T05:44:05.101Z,18.00
2022-12-15T05:48:08.460Z,16.40
2022-12-15T05:52:12.988Z,16.17
2022-12-15T05:56:16.715Z,17.20
2022-12-15T06:00:20.138Z,17.37
2022-12-15T06:04:23.104Z,16.77
2022-12-15T06:08:27.531Z,16.17
2022-12-15T06:12:30.464Z,15.07
2022-12-15T06:16:33.863Z,16.10
2022-12-15T06:20:36.810Z,15.60
2022-12-15T06:24:41.125Z,16.80
2022-12-15T06:28:44.161Z,16.93
2022-12-15T06:32:47.125Z,17.60
2022-12-15T06:36:52.999Z,17.57
2022-12-15T06:40:58.152Z,18.37
2022-12-15T06:45:01.082Z,17.33
2022-12-15T06:49:04.119Z,16.10
2022-12-15T06:53:07.041Z,17.53
2022-12-15T06:57:11.355Z,17.43
2022-12-15T07:01:15.542Z,16.57
2022-12-15T07:05:18.717Z,17.60
2022-12-15T07:09:21.655Z,17.90
2022-12-15T07:13:26.399Z,15.23
2022-12-15T07:17:29.988Z,17.13
2022-12-15T07:21:33.450Z,16.67
2022-12-15T07:25:37.191Z,16.53
2022-12-15T07:29:42.199Z,16.47
2022-12-15T07:33:45.530Z,16.10
2022-12-15T07:37:48.753Z,16.20
2022-12-15T07:41:51.753Z,17.13
2022-12-15T07:45:56.130Z,15.80
2022-12-15T07:49:59.221Z,17.47
2022-12-15T07:54:02.187Z,16.50
2022-12-15T07:58:05.104Z,16.23
2022-12-15T08:02:10.735Z,17.30
2022-12-15T08:06:15.463Z,16.00
2022-12-15T08:10:18.582Z,18.13
2022-12-15T08:14:22.257Z,16.60
2022-12-15T08:18:26.994Z,18.60
2022-12-15T08:22:29.896Z,16.93
2022-12-15T08:26:32.840Z,17.87
2022-12-15T08:30:36.645Z,17.40
2022-12-15T08:34:42.306Z,17.13
2022-12-15T08:38:46.582Z,18.27
2022-12-15T08:42:49.517Z,17.63
2022-12-15T08:46:52.458Z,18.30
2022-12-15T08:50:58.038Z,16.97
2022-12-15T08:55:00.985Z,16.57
2022-12-15T08:59:03.930Z,18.37
2022-12-15T09:03:06.848Z,18.47
2022-12-15T09:07:11.141Z,17.93
2022-12-15T09:11:14.155Z,17.13
2022-12-15T09:15:17.525Z,18.43
2022-12-15T09:19:20.475Z,18.63
2022-12-15T09:23:25.018Z,17.03
2022-12-15T09:27:29.217Z,17.33
2022-12-15T09:31:34.061Z,19.43
2022-12-15T09:35:37.065Z,18.17
2022-12-15T09:39:41.391Z,19.37
2022-12-15T09:43:56.615Z,18.47
2022-12-15T09:48:05.361Z,19.23
2022-12-15T09:52:13.644Z,18.23
2022-12-15T09:56:23.931Z,16.20
2022-12-15T10:00:32.074Z,17.03
2022-12-15T10:04:46.705Z,18.13
2022-12-15T10:08:56.965Z,17.03
2022-12-15T10:13:05.836Z,18.20
2022-12-15T10:17:19.896Z,16.80
2022-12-15T10:21:26.263Z,17.53
2022-12-15T10:25:31.271Z,17.33
2022-12-15T10:29:44.199Z,18.17
2022-12-15T10:33:59.133Z,17.53
2022-12-15T10:38:04.625Z,17.33
2022-12-15T10:42:12.959Z,17.07
2022-12-15T10:46:19.748Z,18.13
2022-12-15T10:50:25.379Z,16.87
2022-12-15T10:54:33.227Z,17.70
2022-12-15T10:58:50.250Z,16.95
2022-12-15T11:02:54.959Z,16.58
2022-12-15T11:06:58.903Z,17.50
2022-12-15T11:11:19.170Z,16.47
2022-12-15T11:15:42.128Z,17.30
2022-12-15T11:19:59.821Z,17.37
2022-12-15T11:24:11.851Z,15.73
2022-12-15T11:28:19.721Z,16.67
2022-12-15T11:32:26.102Z,17.30
2022-12-15T11:36:57.206Z,16.85
2022-12-15T11:41:12.101Z,16.77
2022-12-15T11:45:21.194Z,17.93
2022-12-15T11:49:47.245Z,17.37
2022-12-15T11:54:16.720Z,16.83
2022-12-15T11:58:39.637Z,17.33
2022-12-15T12:03:05.670Z,17.37
2022-12-15T12:07:16.053Z,17.60
2022-12-15T12:11:24.512Z,18.57
2022-12-15T12:15:33.671Z,17.00
2022-12-15T12:19:42.707Z,17.47
2022-12-15T12:23:51.056Z,17.40
2022-12-15T12:27:58.554Z,18.10
2022-12-15T12:32:08.790Z,18.00
2022-12-15T12:36:13.625Z,18.67
2022-12-15T12:40:21.133Z,18.60
2022-12-15T12:44:32.057Z,18.40
2022-12-15T12:48:38.748Z,18.17
2022-12-15T12:52:50.956Z,18.40
2022-12-15T12:56:53.957Z,19.13
2022-12-15T13:01:13.550Z,18.70
2022-12-15T13:05:29.595Z,18.47
2022-12-15T13:09:41.696Z,19.50
2022-12-15T13:13:51.273Z,19.17
2022-12-15T13:18:01.499Z,20.23
2022-12-15T13:22:04.761Z,19.73
2022-12-15T13:26:19.443Z,21.50
2022-12-15T13:30:22.794Z,19.67
2022-12-15T13:34:29.481Z,21.13
2022-12-15T13:38:53.409Z,20.30
2022-12-15T13:42:59.270Z,19.83
2022-12-15T13:47:10.862Z,20.73
2022-12-15T13:51:26.949Z,20.50
2022-12-15T13:55:38.343Z,18.50
2022-12-15T13:59:45.693Z,20.63
2022-12-15T14:03:59.911Z,19.77
2022-12-15T14:08:11.901Z,19.07
2022-12-15T14:12:15.262Z,20.60
2022-12-15T14:16:21.195Z,18.57
2022-12-15T14:20:27.683Z,20.23
2022-12-15T14:24:41.237Z,19.10
2022-12-15T14:28:46.797Z,18.50
2022-12-15T14:32:57.082Z,17.43
2022-12-15T14:37:04.509Z,19.20
2022-12-15T14:41:13.380Z,19.50
2022-12-15T14:45:21.105Z,19.80
2022-12-15T14:49:27.882Z,20.27
2022-12-15T14:53:34.849Z,18.60
2022-12-15T14:57:44.465Z,21.40
2022-12-15T15:01:58.674Z,19.67
2022-12-15T15:06:06.807Z,20.83
2022-12-15T15:10:23.343Z,18.53
2022-12-15T15:14:30.210Z,19.77
2022-12-15T15:18:33.981Z,19.43
2022-12-15T15:22:40.888Z,19.93
2022-12-15T15:26:44.546Z,20.30
2022-12-15T15:30:50.508Z,19.43
2022-12-15T15:34:53.565Z,20.63
2022-12-15T15:38:56.618Z,21.20
2022-12-15T15:42:59.580Z,22.33
2022-12-15T15:47:04.863Z,20.13
2022-12-15T15:51:08.505Z,20.67
2022-12-15T15:55:16.277Z,21.20
2022-12-15T15:59:21.967Z,21.23
2022-12-15T16:03:26.927Z,21.03
2022-12-15T16:07:30.290Z,20.83
2022-12-15T16:11:33.239Z,21.00
2022-12-15T16:15:37.846Z,21.87
2022-12-15T16:19:42.236Z,22.17
2022-12-15T16:23:47.218Z,20.67
2022-12-15T16:27:50.214Z,20.47
2022-12-15T16:31:53.236Z,21.50
2022-12-15T16:35:59.041Z,20.23
2022-12-15T16:40:02.027Z,20.43
2022-12-15T16:44:05.896Z,20.33
2022-12-15T16:48:08.810Z,21.23
2022-12-15T16:52:20.742Z,20.83
2022-12-15T16:56:24.002Z,20.87
2022-12-15T17:00:34.141Z,19.90
2022-12-15T17:04:37.295Z,20.70
2022-12-15T17:08:44.721Z,21.33
2022-12-15T17:12:47.810Z,20.43
2022-12-15T17:16:50.711Z,21.20
2022-12-15T17:21:04.304Z,21.20
2022-12-15T17:25:16.617Z,21.60
2022-12-15T17:29:21.703Z,20.37
2022-12-15T17:33:27.316Z,21.33
2022-12-15T17:37:35.069Z,20.67
2022-12-15T17:46:02.721Z,16.70
2022-12-15T17:50:06.274Z,20.43
2022-12-15T17:54:12.099Z,22.47
2022-12-15T17:58:20.546Z,22.17
2022-12-15T18:02:23.630Z,20.00
2022-12-15T18:06:27.080Z,20.80
2022-12-15T18:10:32.872Z,20.87
2022-12-15T18:14:37.168Z,21.03
2022-12-15T18:18:43.134Z,22.83
2022-12-15T18:22:46.976Z,20.97
2022-12-15T18:26:50.074Z,21.73
2022-12-15T18:30:56.373Z,20.90
2022-12-15T18:34:59.527Z,21.43
2022-12-15T18:39:10.159Z,20.60
2022-12-15T18:43:16.173Z,20.50
2022-12-15T18:47:22.871Z,20.57
2022-12-15T18:51:26.014Z,21.33
2022-12-15T18:55:32.313Z,21.13
2022-12-15T18:59:35.313Z,20.90
2022-12-15T19:03:41.120Z,20.97
2022-12-15T19:07:44.427Z,20.67
2022-12-15T19:12:17.736Z,20.03
2022-12-15T19:16:22.269Z,19.83
2022-12-15T19:20:44.212Z,20.33
2022-12-15T19:24:55.893Z,20.57
2022-12-15T19:28:59.133Z,21.33
2022-12-15T19:33:02.401Z,19.73
2022-12-15T19:37:12.991Z,18.13
2022-12-15T19:41:18.274Z,19.47
2022-12-15T19:45:24.086Z,19.43
2022-12-15T19:49:27.234Z,20.97
2022-12-15T19:53:32.536Z,19.53
2022-12-15T19:57:35.961Z,21.13
2022-12-15T20:01:39.087Z,20.33
2022-12-15T20:05:42.782Z,20.80
2022-12-15T20:09:47.556Z,19.90
2022-12-15T20:13:51.749Z,21.60
2022-12-15T20:17:57.022Z,20.70
2022-12-15T20:22:03.481Z,20.20
2022-12-15T20:26:08.164Z,20.47
2022-12-15T20:30:19.100Z,19.37
2022-12-15T20:34:23.096Z,19.07
2022-12-15T20:38:31.556Z,20.13
2022-12-15T20:42:36.125Z,20.73
2022-12-15T20:46:40.145Z,18.90
2022-12-15T20:50:45.623Z,19.87
2022-12-15T20:54:48.725Z,18.10
2022-12-15T20:58:53.767Z,19.50
2022-12-15T21:02:57.057Z,18.33
2022-12-15T21:07:00.296Z,18.73
2022-12-15T21:11:12.205Z,17.97
2022-12-15T21:15:18.397Z,17.87
2022-12-15T21:19:22.621Z,18.77
2022-12-15T21:23:28.461Z,18.03
2022-12-15T21:27:31.556Z,18.13
2022-12-15T21:31:35.941Z,17.90
2022-12-15T21:35:41.129Z,19.07
2022-12-15T21:39:44.244Z,18.33
2022-12-15T21:43:48.263Z,18.43
2022-12-15T21:48:11.014Z,18.70
2022-12-15T21:52:14.537Z,18.50
2022-12-15T21:56:19.680Z,20.20
2022-12-15T22:00:23.492Z,19.00
2022-12-15T22:04:31.376Z,21.70
2022-12-15T22:08:35.194Z,18.60
2022-12-15T22:12:39.902Z,20.53
2022-12-15T22:16:43.086Z,20.03
2022-12-15T22:20:49.948Z,20.73
2022-12-15T22:24:53.253Z,19.33
2022-12-15T22:28:58.194Z,19.53
2022-12-15T22:33:01.777Z,20.30
2022-12-15T22:37:06.163Z,21.10
2022-12-15T22:41:18.347Z,19.77
2022-12-15T22:45:23.964Z,18.63
2022-12-15T22:49:32.103Z,18.77
2022-12-15T22:53:36.867Z,18.40
2022-12-15T22:57:40.002Z,17.53
2022-12-15T23:01:43.065Z,19.40
2022-12-15T23:05:46.446Z,18.97
2022-12-15T23:10:10.814Z,18.40
2022-12-15T23:14:16.246Z,18.10
2022-12-15T23:18:19.591Z,17.87
2022-12-15T23:22:22.947Z,17.17
2022-12-15T23:26:27.491Z,16.97
2022-12-15T23:30:30.526Z,14.93
2022-12-15T23:34:33.547Z,15.17
2022-12-15T23:38:37.106Z,14.80
2022-12-15T23:42:41.457Z,14.80
2022-12-15T23:46:45.224Z,13.93
2022-12-15T23:50:49.781Z,13.30
2022-12-15T23:54:53.649Z,13.27
2022-12-15T23:59:00.369Z,11.63
